createdAt,value
2022-12-01T00:00:02.117Z,3.10
2022-12-01T00:02:53.769Z,3.12
2022-12-01T00:05:25.521Z,3.11
2022-12-01T00:07:59.154Z,3.12
2022-12-01T00:10:33.526Z,3.14
2022-12-01T00:13:06.639Z,3.15
2022-12-01T00:15:38.296Z,3.17
2022-12-01T00:18:10.363Z,3.18
2022-12-01T00:20:42.069Z,3.20
2022-12-01T00:23:13.685Z,3.25
2022-12-01T00:25:48.786Z,3.28
2022-12-01T00:28:20.380Z,3.30
2022-12-01T00:30:51.989Z,3.32
2022-12-01T00:33:23.687Z,3.32
2022-12-01T00:36:01.938Z,3.34
2022-12-01T00:38:37.148Z,3.32
2022-12-01T00:41:09.833Z,3.32
2022-12-01T00:43:43.825Z,3.28
2022-12-01T00:46:15.589Z,3.30
2022-12-01T00:48:47.692Z,3.32
2022-12-01T00:51:19.252Z,3.33
2022-12-01T00:53:51.220Z,3.34
2022-12-01T00:56:22.797Z,3.33
2022-12-01T00:58:54.360Z,3.35
2022-12-01T01:01:26.348Z,3.36
2022-12-01T01:04:00.940Z,3.35
2022-12-01T01:06:32.568Z,3.35
2022-12-01T01:09:04.253Z,3.34
2022-12-01T01:11:38.653Z,3.35
2022-12-01T01:14:13.355Z,3.34
2022-12-01T01:16:45.217Z,3.33
2022-12-01T01:19:20.046Z,3.29
2022-12-01T01:21:54.023Z,3.27
2022-12-01T01:24:32.786Z,3.24
2022-12-01T01:27:06.586Z,3.24
2022-12-01T01:29:42.571Z,3.24
2022-12-01T01:32:14.179Z,3.24
2022-12-01T01:34:52.461Z,3.23
2022-12-01T01:37:24.049Z,3.24
2022-12-01T01:39:55.583Z,3.25
2022-12-01T01:42:27.162Z,3.27
2022-12-01T01:44:59.245Z,3.26
2022-12-01T01:47:34.781Z,3.24
2022-12-01T01:50:12.719Z,3.20
2022-12-01T01:53:07.901Z,3.18
2022-12-01T01:55:39.896Z,3.15
2022-12-01T01:58:12.159Z,3.12
2022-12-01T02:00:47.291Z,3.13
2022-12-01T02:03:22.484Z,3.13
2022-12-01T02:05:54.102Z,3.11
2022-12-01T02:08:25.949Z,3.10
2022-12-01T02:11:22.983Z,3.09
2022-12-01T02:14:10.780Z,3.09
2022-12-01T02:17:19.829Z,3.08
2022-12-01T02:20:42.425Z,3.07
2022-12-01T02:23:25.687Z,3.06
2022-12-01T02:26:32.316Z,3.06
2022-12-01T02:29:40.780Z,3.05
2022-12-01T02:32:32.080Z,3.03
2022-12-01T02:35:24.036Z,3.03
2022-12-01T02:38:20.544Z,2.99
2022-12-01T02:41:20.607Z,2.97
2022-12-01T02:44:19.871Z,2.96
2022-12-01T02:47:02.672Z,2.96
2022-12-01T02:49:38.734Z,2.95
2022-12-01T02:52:15.182Z,2.94
2022-12-01T02:54:50.415Z,2.91
2022-12-01T02:57:23.504Z,2.88
2022-12-01T02:59:57.135Z,2.86
2022-12-01T03:02:43.354Z,2.84
2022-12-01T03:05:48.193Z,2.80
2022-12-01T03:08:35.445Z,2.78
2022-12-01T03:11:07.165Z,2.75
2022-12-01T03:13:51.132Z,2.73
2022-12-01T03:16:37.285Z,2.72
2022-12-01T03:19:22.353Z,2.70
2022-12-01T03:22:27.545Z,2.68
2022-12-01T03:25:04.028Z,2.69
2022-12-01T03:28:00.578Z,2.69
2022-12-01T03:30:38.368Z,2.69
2022-12-01T03:33:19.405Z,2.71
2022-12-01T03:36:10.899Z,2.71
2022-12-01T03:38:54.280Z,2.71
2022-12-01T03:41:38.904Z,2.71
2022-12-01T03:44:25.207Z,2.71
2022-12-01T03:47:14.612Z,2.72
2022-12-01T03:49:50.315Z,2.70
2022-12-01T03:52:56.042Z,2.71
2022-12-01T03:55:31.411Z,2.70
2022-12-01T03:58:13.572Z,2.66
2022-12-01T04:00:49.996Z,2.66
2022-12-01T04:03:25.167Z,2.68
2022-12-01T04:06:01.040Z,2.68
2022-12-01T04:08:33.854Z,2.67
2022-12-01T04:11:32.470Z,2.69
2022-12-01T04:14:04.469Z,2.68
2022-12-01T04:16:38.255Z,2.67
2022-12-01T04:19:11.073Z,2.66
2022-12-01T04:21:42.759Z,2.65
2022-12-01T04:24:15.694Z,2.65
2022-12-01T04:26:47.524Z,2.64
2022-12-01T04:29:19.101Z,2.64
2022-12-01T04:31:50.788Z,2.64
2022-12-01T04:34:24.568Z,2.63
2022-12-01T04:36:58.252Z,2.62
2022-12-01T04:39:29.859Z,2.61
2022-12-01T04:42:02.431Z,2.61
2022-12-01T04:44:35.229Z,2.59
2022-12-01T04:47:09.716Z,2.57
2022-12-01T04:49:41.325Z,2.60
2022-12-01T04:52:12.968Z,2.60
2022-12-01T04:54:44.806Z,2.62
2022-12-01T04:57:16.393Z,2.62
2022-12-01T04:59:48.390Z,2.63
2022-12-01T05:02:20.246Z,2.64
2022-12-01T05:04:52.189Z,2.65
2022-12-01T05:07:23.824Z,2.67
2022-12-01T05:09:57.726Z,2.65
2022-12-01T05:12:31.408Z,2.68
2022-12-01T05:15:03.054Z,2.66
2022-12-01T05:17:37.664Z,2.68
2022-12-01T05:20:36.316Z,2.66
2022-12-01T05:23:13.583Z,2.65
2022-12-01T05:25:51.064Z,2.65
2022-12-01T05:28:24.776Z,2.67
2022-12-01T05:31:02.286Z,2.68
2022-12-01T05:33:33.951Z,2.68
2022-12-01T05:36:05.848Z,2.69
2022-12-01T05:38:37.419Z,2.56
2022-12-01T05:41:12.132Z,2.52
2022-12-01T05:43:43.993Z,2.56
2022-12-01T05:46:15.754Z,2.57
2022-12-01T05:48:47.414Z,2.62
2022-12-01T05:51:22.193Z,2.65
2022-12-01T05:53:53.848Z,2.69
2022-12-01T05:56:25.570Z,2.72
2022-12-01T05:58:57.208Z,2.74
2022-12-01T06:01:28.791Z,2.76
2022-12-01T06:04:00.424Z,2.73
2022-12-01T06:06:34.789Z,2.71
2022-12-01T06:09:06.486Z,2.72
2022-12-01T06:11:38.098Z,2.72
2022-12-01T06:14:09.661Z,2.72
2022-12-01T06:16:41.546Z,2.73
2022-12-01T06:19:13.181Z,2.75
2022-12-01T06:21:44.757Z,2.77
2022-12-01T06:24:19.391Z,2.81
2022-12-01T06:26:51.050Z,2.86
2022-12-01T06:29:22.684Z,2.86
2022-12-01T06:31:54.276Z,2.89
2022-12-01T06:34:26.701Z,2.89
2022-12-01T06:37:01.455Z,2.93
2022-12-01T06:39:33.071Z,2.92
2022-12-01T06:42:06.579Z,2.92
2022-12-01T06:44:40.888Z,2.95
2022-12-01T06:47:12.653Z,2.91
2022-12-01T06:49:44.616Z,2.88
2022-12-01T06:52:16.338Z,2.86
2022-12-01T06:54:47.927Z,2.91
2022-12-01T06:57:19.868Z,2.95
2022-12-01T06:59:52.825Z,2.99
2022-12-01T07:02:24.948Z,3.02
2022-12-01T07:04:56.608Z,3.07
2022-12-01T07:07:28.176Z,3.09
2022-12-01T07:10:09.199Z,3.13
2022-12-01T07:12:41.133Z,3.15
2022-12-01T07:15:15.728Z,3.19
2022-12-01T07:17:47.336Z,3.13
2022-12-01T07:20:18.941Z,3.10
2022-12-01T07:22:50.576Z,3.12
2022-12-01T07:25:24.281Z,3.11
2022-12-01T07:27:56.720Z,3.12
2022-12-01T07:30:28.810Z,3.16
2022-12-01T07:33:00.800Z,3.20
2022-12-01T07:35:32.417Z,3.23
2022-12-01T07:38:04.049Z,3.27
2022-12-01T07:40:35.650Z,3.28
2022-12-01T07:43:09.980Z,3.33
2022-12-01T07:45:41.812Z,3.26
2022-12-01T07:48:13.489Z,3.25
2022-12-01T07:50:45.032Z,3.22
2022-12-01T07:53:16.585Z,3.22
2022-12-01T07:55:58.757Z,3.22
2022-12-01T07:58:33.705Z,3.21
2022-12-01T08:01:12.810Z,3.18
2022-12-01T08:03:44.993Z,3.26
2022-12-01T08:06:17.986Z,3.30
2022-12-01T08:08:52.888Z,3.38
2022-12-01T08:11:25.574Z,3.45
2022-12-01T08:13:57.395Z,3.50
2022-12-01T08:16:31.130Z,3.49
2022-12-01T08:19:04.077Z,3.49
2022-12-01T08:21:37.461Z,3.50
2022-12-01T08:24:10.910Z,3.60
2022-12-01T08:26:42.605Z,3.66
2022-12-01T08:29:19.724Z,3.75
2022-12-01T08:31:51.950Z,3.69
2022-12-01T08:34:23.779Z,3.72
2022-12-01T08:36:55.445Z,3.67
2022-12-01T08:39:28.053Z,3.56
2022-12-01T08:42:00.155Z,3.64
2022-12-01T08:44:34.883Z,3.62
2022-12-01T08:47:06.637Z,3.62
2022-12-01T08:49:38.192Z,3.62
2022-12-01T08:52:09.756Z,3.57
2022-12-01T08:54:41.305Z,3.48
2022-12-01T08:57:12.964Z,3.51
2022-12-01T08:59:44.623Z,3.66
2022-12-01T09:02:19.032Z,3.78
2022-12-01T09:04:51.713Z,3.88
2022-12-01T09:07:27.112Z,4.00
2022-12-01T09:09:59.161Z,4.16
2022-12-01T09:12:31.224Z,4.08
2022-12-01T09:15:03.159Z,3.86
2022-12-01T09:17:34.708Z,3.83
2022-12-01T09:20:10.211Z,3.81
2022-12-01T09:22:41.808Z,4.00
2022-12-01T09:25:14.737Z,4.15
2022-12-01T09:27:46.601Z,4.29
2022-12-01T09:30:24.682Z,4.46
2022-12-01T09:32:56.269Z,4.65
2022-12-01T09:35:27.815Z,4.47
2022-12-01T09:37:59.556Z,4.42
2022-12-01T09:40:40.168Z,4.47
2022-12-01T09:43:41.712Z,4.56
2022-12-01T09:46:20.279Z,4.69
2022-12-01T09:48:57.109Z,4.94
2022-12-01T09:51:34.871Z,5.24
2022-12-01T09:54:11.730Z,5.16
2022-12-01T09:56:50.401Z,5.04
2022-12-01T09:59:26.930Z,5.16
2022-12-01T10:02:33.411Z,5.32
2022-12-01T10:05:12.473Z,5.12
2022-12-01T10:07:50.350Z,5.27
2022-12-01T10:10:34.323Z,5.40
2022-12-01T10:13:28.180Z,5.49
2022-12-01T10:16:07.527Z,5.64
2022-12-01T10:19:26.106Z,5.55
2022-12-01T10:22:42.631Z,5.50
2022-12-01T10:25:25.678Z,5.86
2022-12-01T10:28:12.862Z,5.96
2022-12-01T10:30:52.679Z,6.16
2022-12-01T10:33:25.816Z,6.41
2022-12-01T10:35:58.015Z,6.38
2022-12-01T10:38:49.614Z,6.34
2022-12-01T10:41:24.535Z,6.93
2022-12-01T10:44:01.066Z,7.87
2022-12-01T10:46:47.644Z,8.72
2022-12-01T10:49:34.800Z,9.59
2022-12-01T10:52:33.008Z,10.81
2022-12-01T10:55:22.994Z,11.13
2022-12-01T10:57:57.750Z,11.27
2022-12-01T11:00:58.607Z,11.21
2022-12-01T11:03:35.159Z,10.82
2022-12-01T11:06:07.758Z,10.78
2022-12-01T11:08:45.420Z,11.03
2022-12-01T11:11:36.526Z,11.33
2022-12-01T11:14:36.488Z,11.54
2022-12-01T11:17:25.714Z,10.81
2022-12-01T11:19:58.453Z,10.81
2022-12-01T11:22:33.068Z,11.09
2022-12-01T11:25:05.881Z,11.34
2022-12-01T11:27:57.701Z,11.10
2022-12-01T11:30:35.719Z,10.32
2022-12-01T11:33:07.436Z,9.94
2022-12-01T11:35:46.007Z,9.69
2022-12-01T11:38:30.679Z,9.65
2022-12-01T11:41:03.573Z,9.44
2022-12-01T11:43:41.617Z,9.19
2022-12-01T11:46:16.836Z,8.95
2022-12-01T11:49:00.465Z,8.87
2022-12-01T11:51:37.722Z,9.14
2022-12-01T11:54:44.322Z,9.17
2022-12-01T11:57:33.860Z,8.63
2022-12-01T12:00:29.648Z,8.48
2022-12-01T12:03:04.631Z,8.40
2022-12-01T12:05:52.862Z,8.70
2022-12-01T12:08:30.977Z,8.67
2022-12-01T12:11:17.438Z,8.84
2022-12-01T12:14:19.896Z,9.45
2022-12-01T12:17:19.295Z,9.79
2022-12-01T12:20:28.101Z,9.50
2022-12-01T12:23:20.264Z,8.60
2022-12-01T12:26:15.892Z,8.35
2022-12-01T12:29:14.025Z,8.75
2022-12-01T12:32:14.516Z,9.09
2022-12-01T12:35:06.030Z,9.19
2022-12-01T12:38:34.703Z,9.02
2022-12-01T12:41:24.149Z,8.81
2022-12-01T12:44:08.930Z,8.49
2022-12-01T12:47:08.072Z,8.11
2022-12-01T12:49:50.990Z,7.63
2022-12-01T12:52:28.862Z,7.75
2022-12-01T12:55:10.898Z,7.97
2022-12-01T12:57:48.810Z,7.78
2022-12-01T13:00:28.904Z,7.72
2022-12-01T13:03:38.539Z,7.19
2022-12-01T13:06:14.702Z,6.84
2022-12-01T13:09:14.291Z,6.63
2022-12-01T13:12:10.262Z,6.51
2022-12-01T13:14:59.460Z,6.57
2022-12-01T13:17:41.793Z,6.57
2022-12-01T13:20:21.094Z,6.31
2022-12-01T13:22:54.119Z,6.07
2022-12-01T13:25:39.557Z,5.91
2022-12-01T13:28:22.064Z,5.91
2022-12-01T13:31:01.821Z,5.88
2022-12-01T13:33:35.681Z,5.92
2022-12-01T13:39:18.064Z,5.76
2022-12-01T13:42:23.048Z,5.62
2022-12-01T13:45:01.588Z,5.50
2022-12-01T13:47:51.406Z,5.54
2022-12-01T13:50:44.579Z,5.40
2022-12-01T13:53:19.121Z,5.39
2022-12-01T13:56:23.558Z,5.27
2022-12-01T13:58:55.536Z,5.13
2022-12-01T14:01:27.186Z,5.12
2022-12-01T14:04:10.968Z,5.10
2022-12-01T14:06:50.997Z,5.14
2022-12-01T14:09:53.875Z,5.12
2022-12-01T14:12:30.348Z,5.02
2022-12-01T14:15:20.860Z,4.86
2022-12-01T14:18:04.338Z,4.87
2022-12-01T14:20:45.843Z,4.84
2022-12-01T14:23:33.928Z,4.66
2022-12-01T14:26:18.281Z,4.62
2022-12-01T14:28:55.970Z,4.65
2022-12-01T14:31:33.588Z,4.67
2022-12-01T14:34:15.752Z,4.71
2022-12-01T14:37:16.692Z,4.66
2022-12-01T14:40:05.847Z,4.71
2022-12-01T14:43:00.082Z,4.73
2022-12-01T14:45:58.265Z,4.68
2022-12-01T14:48:39.338Z,4.60
2022-12-01T14:51:24.113Z,4.59
2022-12-01T14:53:57.892Z,4.58
2022-12-01T14:56:32.400Z,4.56
2022-12-01T14:59:19.170Z,4.46
2022-12-01T15:01:53.731Z,4.35
2022-12-01T15:04:28.505Z,4.29
2022-12-01T15:07:00.223Z,4.33
2022-12-01T15:09:33.920Z,4.41
2022-12-01T15:12:07.626Z,4.46
2022-12-01T15:14:48.209Z,4.45
2022-12-01T15:17:35.824Z,4.39
2022-12-01T15:20:46.327Z,4.34
2022-12-01T15:23:19.391Z,4.34
2022-12-01T15:25:51.100Z,4.39
2022-12-01T15:28:36.172Z,4.41
2022-12-01T15:31:12.681Z,4.38
2022-12-01T15:33:52.935Z,4.29
2022-12-01T15:36:24.669Z,4.25
2022-12-01T15:39:03.568Z,4.28
2022-12-01T15:41:41.419Z,4.31
2022-12-01T15:44:22.823Z,4.28
2022-12-01T15:46:54.941Z,4.29
2022-12-01T15:49:32.916Z,4.18
2022-12-01T15:52:12.791Z,4.10
2022-12-01T15:54:48.420Z,3.97
2022-12-01T15:57:21.918Z,3.93
2022-12-01T15:59:56.457Z,3.97
2022-12-01T16:02:33.695Z,4.07
2022-12-01T16:05:14.362Z,4.14
2022-12-01T16:08:12.766Z,4.12
2022-12-01T16:10:39.236Z,4.13
2022-12-01T16:13:44.142Z,4.13
2022-12-01T16:16:42.298Z,4.07
2022-12-01T16:19:16.796Z,4.10
2022-12-01T16:21:55.680Z,4.10
2022-12-01T16:24:34.322Z,4.15
2022-12-01T16:27:20.275Z,4.16
2022-12-01T16:29:53.282Z,4.15
2022-12-01T16:32:39.361Z,4.03
2022-12-01T16:35:33.138Z,4.03
2022-12-01T16:38:13.245Z,4.00
2022-12-01T16:40:45.303Z,3.92
2022-12-01T16:43:25.174Z,3.89
2022-12-01T16:46:06.706Z,3.99
2022-12-01T16:48:38.454Z,4.05
2022-12-01T16:51:14.626Z,4.11
2022-12-01T16:53:50.959Z,4.09
2022-12-01T16:56:22.797Z,4.04
2022-12-01T16:58:54.394Z,3.90
2022-12-01T17:01:26.158Z,3.75
2022-12-01T17:04:06.082Z,3.57
2022-12-01T17:06:39.193Z,3.39
2022-12-01T17:09:10.920Z,3.32
2022-12-01T17:11:42.546Z,3.37
2022-12-01T17:14:14.164Z,3.41
2022-12-01T17:16:46.236Z,3.43
2022-12-01T17:19:20.776Z,3.50
2022-12-01T17:21:53.307Z,3.51
2022-12-01T17:24:25.993Z,3.57
2022-12-01T17:26:57.621Z,3.51
2022-12-01T17:29:29.251Z,3.50
2022-12-01T17:32:00.926Z,3.46
2022-12-01T17:34:32.514Z,3.48
2022-12-01T17:37:04.561Z,3.49
2022-12-01T17:39:36.225Z,3.46
2022-12-01T17:42:07.848Z,3.41
2022-12-01T17:44:39.379Z,3.39
2022-12-01T17:47:11.604Z,3.43
2022-12-01T17:49:43.663Z,3.44
2022-12-01T17:52:15.522Z,3.45
2022-12-01T17:54:47.297Z,3.39
2022-12-01T17:57:19.138Z,3.28
2022-12-01T17:59:50.837Z,3.23
2022-12-01T18:02:22.554Z,3.21
2022-12-01T18:04:54.841Z,3.04
2022-12-01T18:07:26.702Z,3.01
2022-12-01T18:09:58.318Z,2.92
2022-12-01T18:12:29.916Z,2.89
2022-12-01T18:15:01.590Z,2.87
2022-12-01T18:17:33.208Z,2.91
2022-12-01T18:20:06.509Z,2.95
2022-12-01T18:22:38.109Z,2.93
2022-12-01T18:25:12.203Z,2.92
2022-12-01T18:27:45.078Z,2.80
2022-12-01T18:30:16.885Z,2.75
2022-12-01T18:32:48.447Z,2.79
2022-12-01T18:35:20.106Z,2.82
2022-12-01T18:37:51.716Z,2.73
2022-12-01T18:40:24.125Z,2.71
2022-12-01T18:42:55.938Z,2.67
2022-12-01T18:45:27.507Z,2.68
2022-12-01T18:47:59.099Z,2.60
2022-12-01T18:50:30.734Z,2.55
2022-12-01T18:53:02.406Z,2.51
2022-12-01T18:55:40.490Z,2.54
2022-12-01T18:58:12.167Z,2.46
2022-12-01T19:00:43.859Z,2.46
2022-12-01T19:03:15.952Z,2.45
2022-12-01T19:05:47.587Z,2.69
2022-12-01T19:08:19.276Z,3.12
2022-12-01T19:11:01.707Z,3.38
2022-12-01T19:13:34.233Z,3.62
2022-12-01T19:16:08.431Z,3.94
2022-12-01T19:18:40.534Z,3.99
2022-12-01T19:21:18.601Z,4.12
2022-12-01T19:23:50.578Z,4.12
2022-12-01T19:26:23.193Z,4.06
2022-12-01T19:28:55.914Z,4.18
2022-12-01T19:31:27.709Z,4.24
2022-12-01T19:33:59.343Z,4.09
2022-12-01T19:36:31.028Z,3.99
2022-12-01T19:39:05.974Z,4.04
2022-12-01T19:41:41.303Z,4.09
2022-12-01T19:44:14.676Z,3.75
2022-12-01T19:46:46.256Z,3.39
2022-12-01T19:49:17.931Z,3.17
2022-12-01T19:51:49.621Z,3.07
2022-12-01T19:54:21.406Z,2.82
2022-12-01T19:56:53.081Z,2.64
2022-12-01T19:59:26.740Z,2.45
2022-12-01T20:01:58.566Z,2.45
2022-12-01T20:04:30.292Z,2.28
2022-12-01T20:07:02.125Z,2.24
2022-12-01T20:09:33.741Z,2.18
2022-12-01T20:12:05.472Z,2.01
2022-12-01T20:14:37.091Z,1.91
2022-12-01T20:17:14.327Z,1.86
2022-12-01T20:19:47.379Z,1.86
2022-12-01T20:22:19.113Z,1.81
2022-12-01T20:24:50.985Z,1.73
2022-12-01T20:27:22.709Z,1.69
2022-12-01T20:29:56.120Z,1.65
2022-12-01T20:32:27.820Z,1.73
2022-12-01T20:34:59.608Z,1.81
2022-12-01T20:37:31.277Z,1.85
2022-12-01T20:40:08.056Z,1.89
2022-12-01T20:42:39.744Z,1.84
2022-12-01T20:45:11.360Z,1.80
2022-12-01T20:47:43.042Z,1.77
2022-12-01T20:50:15.867Z,1.82
2022-12-01T20:52:47.468Z,1.84
2022-12-01T20:55:19.176Z,1.82
2022-12-01T20:57:50.999Z,1.77
2022-12-01T21:00:23.538Z,1.76
2022-12-01T21:02:56.958Z,1.78
2022-12-01T21:05:28.639Z,1.72
2022-12-01T21:08:01.722Z,1.62
2022-12-01T21:10:36.685Z,1.64
2022-12-01T21:13:42.508Z,1.58
2022-12-01T21:16:16.867Z,1.63
2022-12-01T21:18:56.121Z,1.56
2022-12-01T21:21:30.855Z,1.57
2022-12-01T21:24:16.668Z,1.62
2022-12-01T21:26:58.297Z,1.60
2022-12-01T21:29:49.831Z,1.62
2022-12-01T21:32:33.463Z,1.61
2022-12-01T21:35:16.518Z,1.68
2022-12-01T21:37:49.315Z,1.68
2022-12-01T21:40:23.834Z,1.67
2022-12-01T21:43:01.125Z,1.77
2022-12-01T21:45:32.735Z,1.72
2022-12-01T21:48:18.360Z,1.64
2022-12-01T21:51:00.712Z,1.65
2022-12-01T21:53:38.394Z,1.68
2022-12-01T21:56:21.282Z,1.62
2022-12-01T21:58:55.356Z,1.61
2022-12-01T22:01:31.871Z,1.63
2022-12-01T22:04:19.246Z,1.62
2022-12-01T22:06:55.965Z,1.60
2022-12-01T22:09:36.611Z,1.58
2022-12-01T22:12:28.891Z,1.49
2022-12-01T22:15:01.732Z,1.50
2022-12-01T22:17:36.836Z,1.46
2022-12-01T22:20:22.179Z,1.51
2022-12-01T22:22:53.761Z,1.52
2022-12-01T22:25:26.759Z,1.54
2022-12-01T22:27:59.958Z,1.61
2022-12-01T22:30:33.656Z,1.65
2022-12-01T22:33:14.770Z,1.64
2022-12-01T22:35:51.765Z,1.63
2022-12-01T22:38:26.377Z,1.72
2022-12-01T22:41:07.338Z,1.77
2022-12-01T22:43:47.456Z,1.77
2022-12-01T22:46:23.754Z,1.80
2022-12-01T22:49:01.497Z,1.73
2022-12-01T22:51:46.382Z,1.72
2022-12-01T22:54:17.943Z,1.69
2022-12-01T22:57:03.872Z,1.80
2022-12-01T22:59:37.966Z,1.81
2022-12-01T23:02:33.487Z,1.84
2022-12-01T23:05:25.471Z,1.90
2022-12-01T23:07:57.685Z,1.90
2022-12-01T23:10:33.613Z,1.98
2022-12-01T23:13:24.641Z,1.98
2022-12-01T23:15:56.388Z,1.87
2022-12-01T23:18:32.136Z,1.89
2022-12-01T23:21:04.081Z,1.92
2022-12-01T23:23:37.421Z,1.83
2022-12-01T23:26:10.467Z,1.70
2022-12-01T23:28:42.144Z,1.75
2022-12-01T23:31:14.066Z,1.81
2022-12-01T23:33:45.777Z,1.73
2022-12-01T23:36:24.323Z,1.70
2022-12-01T23:39:01.370Z,1.69
2022-12-01T23:41:39.067Z,1.72
2022-12-01T23:44:24.067Z,1.69
2022-12-01T23:46:57.775Z,1.67
2022-12-01T23:49:33.120Z,1.74
2022-12-01T23:52:11.018Z,1.78
2022-12-01T23:54:42.725Z,1.76
2022-12-01T23:57:21.752Z,1.79
2022-12-01T23:59:58.306Z,1.82
